Time;durP1;ratioP1;P1;durP2;ratioP2;P2;SDS_P1;SDS_P2;PMS_P1;PMS_P2;Temp;Humidity;BMP_temperature;BMP_pressure;BME280_temperature;BME280_humidity;BME280_pressure;Samples;Min_cycle;Max_cycle;Signal;HPM_P1;HPM_P2
2021/06/19 00:02:01;;;;;;;6.90;3.90;;;21.80;81.60;;;;;;5113824;28;20418;-78
2021/06/19 00:04:30;;;;;;;6.75;4.47;;;21.80;81.90;;;;;;5113849;28;20076;-77
2021/06/19 00:06:57;;;;;;;7.55;4.82;;;21.80;82.00;;;;;;5112864;28;20061;-78
2021/06/19 00:09:22;;;;;;;8.32;5.00;;;21.80;82.20;;;;;;5112523;28;20115;-77
2021/06/19 00:11:48;;;;;;;10.20;5.10;;;21.80;82.50;;;;;;5114559;28;20058;-77
2021/06/19 00:14:13;;;;;;;10.27;5.35;;;21.80;82.50;;;;;;5112631;28;20027;-77
2021/06/19 00:16:39;;;;;;;10.02;5.88;;;21.70;82.80;;;;;;5112713;28;20059;-77
2021/06/19 00:19:05;;;;;;;7.68;5.40;;;21.70;83.20;;;;;;5113051;28;20122;-77
2021/06/19 00:21:30;;;;;;;7.88;5.35;;;21.70;83.80;;;;;;5113431;28;20027;-76
2021/06/19 00:23:56;;;;;;;9.77;6.93;;;21.70;83.80;;;;;;5112836;28;20047;-76
2021/06/19 00:26:22;;;;;;;10.60;5.93;;;21.60;84.10;;;;;;5113708;28;20031;-77
2021/06/19 00:28:47;;;;;;;12.25;7.78;;;21.70;84.10;;;;;;5112786;28;20039;-76
2021/06/19 00:31:13;;;;;;;9.15;5.47;;;21.70;84.50;;;;;;5119546;28;20118;-76
2021/06/19 00:33:38;;;;;;;11.88;5.72;;;21.70;84.50;;;;;;5116129;28;20107;-78
2021/06/19 00:36:04;;;;;;;10.20;7.25;;;21.70;84.60;;;;;;5112686;28;20024;-78
2021/06/19 00:38:29;;;;;;;10.02;6.68;;;21.60;84.60;;;;;;5113637;28;20016;-77
2021/06/19 00:40:55;;;;;;;8.90;6.95;;;21.60;84.80;;;;;;5112500;28;20472;-78
2021/06/19 00:43:21;;;;;;;9.70;6.00;;;21.60;85.00;;;;;;5113446;28;20360;-77
2021/06/19 00:45:47;;;;;;;8.95;5.43;;;21.60;85.30;;;;;;5114140;28;20027;-78
2021/06/19 00:48:12;;;;;;;7.30;5.05;;;21.70;85.30;;;;;;5112284;28;20020;-77
2021/06/19 00:50:40;;;;;;;10.40;7.05;;;21.60;85.20;;;;;;5112428;28;20452;-77
2021/06/19 00:53:06;;;;;;;10.50;6.28;;;21.60;85.40;;;;;;5113726;28;20012;-77
2021/06/19 00:55:32;;;;;;;9.55;6.53;;;21.60;85.50;;;;;;5112256;28;20422;-75
2021/06/19 00:58:00;;;;;;;10.85;6.00;;;21.60;85.60;;;;;;5113091;28;20034;-76
2021/06/19 01:00:26;;;;;;;10.52;6.40;;;21.60;85.60;;;;;;5112275;28;20032;-76
2021/06/19 01:02:56;;;;;;;6.78;4.35;;;21.60;85.40;;;;;;5113586;28;20024;-76
2021/06/19 01:05:23;;;;;;;7.22;4.55;;;21.60;85.00;;;;;;5126850;28;20042;-76
2021/06/19 01:07:49;;;;;;;8.68;4.43;;;21.60;84.60;;;;;;5122833;28;20112;-75
2021/06/19 01:10:15;;;;;;;6.32;4.05;;;21.60;84.30;;;;;;5126631;28;20023;-76
2021/06/19 01:12:42;;;;;;;6.50;3.92;;;21.60;84.10;;;;;;5121887;28;20438;-76
2021/06/19 01:15:08;;;;;;;6.53;3.45;;;21.60;84.40;;;;;;5116902;28;20118;-77
2021/06/19 01:17:34;;;;;;;8.32;4.47;;;21.60;83.60;;;;;;5115530;28;20484;-76
2021/06/19 01:19:59;;;;;;;7.70;2.97;;;21.60;83.60;;;;;;5115622;28;20077;-76
2021/06/19 01:22:25;;;;;;;6.40;3.13;;;21.60;83.30;;;;;;5115371;28;20030;-76
2021/06/19 01:24:51;;;;;;;3.95;2.25;;;21.60;83.10;;;;;;5115544;28;20132;-77
2021/06/19 01:27:17;;;;;;;4.35;2.90;;;21.60;82.70;;;;;;5112165;28;20471;-77
2021/06/19 01:29:43;;;;;;;5.30;2.78;;;21.60;82.50;;;;;;5115709;28;20032;-77
2021/06/19 01:32:08;;;;;;;4.57;2.80;;;21.60;82.30;;;;;;5116878;28;20416;-76
2021/06/19 01:34:34;;;;;;;3.65;2.30;;;21.60;82.00;;;;;;5114203;28;20084;-77
2021/06/19 01:36:59;;;;;;;5.47;2.60;;;21.60;81.90;;;;;;5114410;28;20055;-77
2021/06/19 01:39:25;;;;;;;5.60;2.50;;;21.50;81.70;;;;;;5114339;28;20411;-77
2021/06/19 01:41:50;;;;;;;4.30;2.25;;;21.60;81.00;;;;;;5115481;28;20019;-78
2021/06/19 01:44:16;;;;;;;4.40;2.03;;;21.50;81.10;;;;;;5115201;28;20072;-77
2021/06/19 01:46:42;;;;;;;3.70;2.30;;;21.50;80.90;;;;;;5115603;28;20059;-77
2021/06/19 01:49:08;;;;;;;5.00;2.20;;;21.50;81.00;;;;;;5115623;28;20027;-78
2021/06/19 01:51:34;;;;;;;5.10;2.28;;;21.60;80.80;;;;;;5117786;28;20114;-77
2021/06/19 01:53:59;;;;;;;4.55;2.13;;;21.50;79.90;;;;;;5115508;28;20058;-78
2021/06/19 01:56:25;;;;;;;4.30;2.55;;;21.50;79.20;;;;;;5115588;28;20035;-78
2021/06/19 01:58:52;;;;;;;5.30;2.33;;;21.50;78.60;;;;;;5116190;28;20028;-76
2021/06/19 02:01:18;;;;;;;4.63;2.70;;;21.50;78.70;;;;;;5116119;28;20088;-77
2021/06/19 02:03:45;;;;;;;4.57;2.00;;;21.50;79.60;;;;;;5115011;28;20467;-77
2021/06/19 02:06:11;;;;;;;3.97;2.17;;;21.40;78.80;;;;;;5115851;28;20472;-77
2021/06/19 02:08:38;;;;;;;11.23;2.58;;;21.40;79.50;;;;;;5116384;28;20599;-79
2021/06/19 02:11:04;;;;;;;7.97;2.72;;;21.40;80.20;;;;;;5115487;28;20011;-77
2021/06/19 02:13:31;;;;;;;3.17;2.28;;;21.40;80.60;;;;;;5114887;28;20031;-78
2021/06/19 02:15:57;;;;;;;4.72;2.20;;;21.30;81.00;;;;;;5114857;28;20100;-77
2021/06/19 02:18:23;;;;;;;5.80;2.42;;;21.30;81.10;;;;;;5113752;28;20019;-77
2021/06/19 02:20:52;;;;;;;3.83;1.98;;;21.30;81.20;;;;;;5114360;28;20042;-78
2021/06/19 02:23:23;;;;;;;5.13;2.13;;;21.20;81.10;;;;;;5114205;28;20055;-78
2021/06/19 02:25:52;;;;;;;3.38;2.25;;;21.30;81.30;;;;;;5114327;28;20026;-78
2021/06/19 02:28:20;;;;;;;4.63;1.80;;;21.20;81.60;;;;;;5117018;28;20042;-78
2021/06/19 02:30:47;;;;;;;4.28;2.53;;;21.20;81.80;;;;;;5116013;28;20092;-78
2021/06/19 02:33:14;;;;;;;5.07;2.20;;;21.10;82.10;;;;;;5114717;28;20024;-77
2021/06/19 02:35:44;;;;;;;3.38;1.92;;;21.20;82.30;;;;;;5123668;28;20085;-78
2021/06/19 02:38:10;;;;;;;4.70;2.50;;;21.10;82.30;;;;;;5121022;28;20034;-78
2021/06/19 02:40:38;;;;;;;4.57;2.63;;;21.10;82.60;;;;;;5113857;28;20103;-78
2021/06/19 02:43:05;;;;;;;5.53;2.60;;;21.10;82.90;;;;;;5115418;28;20111;-77
2021/06/19 02:45:31;;;;;;;3.72;2.47;;;21.00;83.00;;;;;;5114087;28;20050;-77
2021/06/19 02:47:58;;;;;;;5.18;2.80;;;21.00;83.30;;;;;;5113860;28;20030;-77
2021/06/19 02:50:26;;;;;;;5.28;3.28;;;21.00;84.00;;;;;;5113816;28;20047;-77
2021/06/19 02:52:52;;;;;;;4.10;2.58;;;20.90;83.50;;;;;;5113931;28;20463;-77
2021/06/19 02:55:20;;;;;;;4.95;2.60;;;20.90;83.50;;;;;;5113240;28;20023;-77
2021/06/19 02:57:45;;;;;;;4.28;2.92;;;20.90;83.50;;;;;;5115457;28;20098;-77
2021/06/19 03:00:14;;;;;;;6.05;3.30;;;20.90;83.60;;;;;;5113547;28;20107;-77
2021/06/19 03:02:39;;;;;;;4.07;2.83;;;20.90;83.80;;;;;;5112648;28;20027;-78
2021/06/19 03:05:07;;;;;;;4.82;3.03;;;21.00;83.90;;;;;;5113166;28;20103;-77
2021/06/19 03:07:33;;;;;;;5.25;3.10;;;21.00;83.90;;;;;;5116316;28;20020;-76
2021/06/19 03:09:59;;;;;;;5.03;3.28;;;21.00;83.90;;;;;;5129825;28;20059;-77
2021/06/19 03:12:26;;;;;;;8.90;3.47;;;21.00;83.90;;;;;;5121904;28;20031;-77
2021/06/19 03:14:53;;;;;;;8.50;3.40;;;21.00;84.00;;;;;;5124324;28;20024;-78
2021/06/19 03:17:18;;;;;;;7.05;3.40;;;21.10;84.30;;;;;;5113180;28;20044;-79
2021/06/19 03:19:44;;;;;;;8.60;4.05;;;21.10;84.30;;;;;;5115628;28;20035;-78
2021/06/19 03:22:09;;;;;;;4.78;3.40;;;21.10;84.10;;;;;;5113033;28;20024;-76
2021/06/19 03:24:40;;;;;;;5.18;3.53;;;21.10;84.20;;;;;;5114382;28;20055;-77
2021/06/19 03:27:08;;;;;;;6.22;3.20;;;21.10;84.30;;;;;;5115164;28;20024;-77
2021/06/19 03:29:34;;;;;;;7.40;3.60;;;21.10;84.30;;;;;;5114468;28;20528;-77
2021/06/19 03:32:00;;;;;;;5.95;3.85;;;21.10;84.40;;;;;;5114200;28;20062;-77
2021/06/19 03:34:25;;;;;;;7.20;4.47;;;21.10;85.30;;;;;;5114186;28;20059;-77
2021/06/19 03:36:58;;;;;;;6.07;3.50;;;21.20;83.90;;;;;;5113044;28;20019;-78
2021/06/19 03:39:24;;;;;;;7.90;4.22;;;21.20;84.00;;;;;;5112692;28;20053;-77
2021/06/19 03:41:49;;;;;;;5.82;3.17;;;21.20;83.90;;;;;;5113837;28;20530;-78
2021/06/19 03:44:15;;;;;;;6.22;4.85;;;21.20;83.90;;;;;;5113695;28;20076;-77
2021/06/19 03:46:41;;;;;;;6.38;4.75;;;21.20;83.60;;;;;;5113376;28;20016;-77
2021/06/19 03:49:06;;;;;;;5.57;4.45;;;21.30;84.00;;;;;;5114713;28;20106;-77
2021/06/19 03:51:32;;;;;;;7.35;5.25;;;21.30;84.10;;;;;;5113909;28;20020;-77
2021/06/19 03:53:57;;;;;;;5.38;4.13;;;21.30;84.00;;;;;;5112666;28;20024;-77
2021/06/19 03:56:23;;;;;;;6.22;5.07;;;21.30;81.10;;;;;;5112711;28;20024;-77
2021/06/19 03:58:49;;;;;;;10.25;6.15;;;21.30;82.50;;;;;;5114431;28;20094;-77
2021/06/19 04:01:14;;;;;;;5.75;4.65;;;21.30;81.90;;;;;;5113057;28;20122;-77
2021/06/19 04:03:40;;;;;;;6.70;5.03;;;21.30;81.30;;;;;;5113017;28;20069;-77
2021/06/19 04:06:05;;;;;;;9.45;5.18;;;21.40;80.20;;;;;;5112780;28;20016;-77
2021/06/19 04:08:31;;;;;;;6.72;5.55;;;21.30;81.60;;;;;;5112948;28;20024;-78
2021/06/19 04:10:57;;;;;;;6.95;4.90;;;21.40;82.20;;;;;;5114603;28;20024;-77
2021/06/19 04:13:22;;;;;;;7.68;5.57;;;21.30;81.80;;;;;;5114578;28;20475;-78
2021/06/19 04:15:48;;;;;;;9.77;5.97;;;21.30;82.20;;;;;;5112578;28;20058;-78
2021/06/19 04:18:13;;;;;;;11.27;6.60;;;21.30;82.40;;;;;;5116832;28;20027;-78
2021/06/19 04:20:39;;;;;;;12.13;6.10;;;21.30;82.50;;;;;;5112590;28;20081;-76
2021/06/19 04:23:05;;;;;;;9.32;6.93;;;21.30;82.40;;;;;;5112971;28;20023;-77
2021/06/19 04:25:30;;;;;;;13.65;7.65;;;21.30;82.50;;;;;;5112562;28;20376;-76
2021/06/19 04:27:57;;;;;;;9.20;7.32;;;21.30;82.90;;;;;;5112090;28;20024;-75
2021/06/19 04:30:24;;;;;;;8.75;5.95;;;21.30;83.10;;;;;;5112193;28;20055;-76
2021/06/19 04:32:52;;;;;;;8.25;6.30;;;21.30;83.20;;;;;;5112982;28;20384;-76
2021/06/19 04:35:18;;;;;;;9.05;6.57;;;21.30;83.10;;;;;;5112903;28;20102;-75
2021/06/19 04:37:44;;;;;;;12.63;7.07;;;21.30;82.80;;;;;;5111836;28;20030;-76
2021/06/19 04:42:38;;;;;;;10.43;7.32;;;21.30;82.90;;;;;;5119060;28;20152;-75
2021/06/19 04:45:06;;;;;;;9.40;6.80;;;21.30;83.10;;;;;;5117486;28;20054;-75
2021/06/19 04:47:33;;;;;;;7.97;5.68;;;21.40;83.40;;;;;;5115174;28;20027;-78
2021/06/19 04:50:00;;;;;;;5.90;4.10;;;21.40;83.40;;;;;;5115690;28;20138;-77
2021/06/19 04:52:30;;;;;;;6.53;4.80;;;21.40;81.90;;;;;;5115457;28;20348;-77
2021/06/19 04:54:55;;;;;;;9.55;4.50;;;21.40;80.40;;;;;;5116682;28;20027;-77
2021/06/19 04:57:22;;;;;;;5.40;3.92;;;21.50;79.70;;;;;;5117247;28;20076;-77
2021/06/19 04:59:47;;;;;;;6.43;3.78;;;21.50;80.00;;;;;;5115993;28;20023;-77
2021/06/19 05:02:13;;;;;;;6.53;4.50;;;21.50;80.50;;;;;;5115366;28;20027;-77
2021/06/19 05:04:39;;;;;;;7.80;4.40;;;21.60;80.90;;;;;;5115157;28;20046;-77
2021/06/19 05:07:05;;;;;;;4.97;3.85;;;21.60;81.00;;;;;;5115581;28;20026;-78
2021/06/19 05:09:31;;;;;;;5.07;3.25;;;21.60;80.50;;;;;;5115543;28;20467;-78
2021/06/19 05:11:56;;;;;;;7.18;4.28;;;21.70;81.00;;;;;;5118002;28;20031;-77
2021/06/19 05:14:22;;;;;;;4.82;3.22;;;21.70;80.70;;;;;;5127293;28;20028;-77
2021/06/19 05:16:47;;;;;;;5.70;3.67;;;21.70;78.40;;;;;;5117639;28;20055;-75
2021/06/19 05:19:13;;;;;;;13.98;3.30;;;21.70;78.70;;;;;;5134960;28;20036;-77
2021/06/19 05:21:41;;;;;;;6.05;3.53;;;21.70;78.20;;;;;;5117646;28;20024;-76
2021/06/19 05:24:08;;;;;;;4.55;3.10;;;21.70;77.30;;;;;;5115050;28;20460;-78
2021/06/19 05:26:33;;;;;;;5.82;4.13;;;21.80;75.30;;;;;;5115580;28;20027;-77
2021/06/19 05:28:59;;;;;;;4.95;3.65;;;21.80;77.10;;;;;;5116682;28;20024;-78
2021/06/19 05:31:26;;;;;;;5.20;3.05;;;21.80;75.80;;;;;;5115612;28;20024;-78
2021/06/19 05:33:52;;;;;;;3.55;2.90;;;21.80;75.40;;;;;;5115066;28;20019;-77
2021/06/19 05:36:17;;;;;;;6.43;3.95;;;21.80;75.80;;;;;;5115637;28;20383;-76
2021/06/19 05:38:43;;;;;;;5.03;3.15;;;21.90;77.30;;;;;;5114357;28;20039;-75
2021/06/19 05:41:08;;;;;;;4.65;3.00;;;21.80;75.50;;;;;;5114376;28;20122;-75
2021/06/19 05:43:34;;;;;;;5.78;3.75;;;21.80;72.70;;;;;;5113903;28;20024;-76
2021/06/19 05:46:00;;;;;;;6.70;3.70;;;21.80;74.10;;;;;;5115989;28;20031;-76
2021/06/19 05:48:25;;;;;;;6.82;4.88;;;21.80;74.10;;;;;;5114094;28;20019;-76
2021/06/19 05:50:51;;;;;;;8.23;4.72;;;21.80;73.60;;;;;;5113890;28;20096;-77
2021/06/19 05:53:16;;;;;;;7.60;3.97;;;21.90;75.30;;;;;;5112944;28;20032;-76
2021/06/19 05:55:42;;;;;;;6.40;5.07;;;21.90;74.50;;;;;;5113799;28;20022;-76
2021/06/19 05:58:09;;;;;;;4.95;3.50;;;21.90;75.00;;;;;;5114137;28;20468;-76
2021/06/19 06:00:35;;;;;;;11.80;7.40;;;21.90;75.20;;;;;;5115022;28;20086;-76
2021/06/19 06:03:01;;;;;;;15.30;10.57;;;21.90;75.60;;;;;;5114539;28;20023;-76
2021/06/19 06:05:29;;;;;;;16.50;10.95;;;21.80;76.00;;;;;;5114465;28;20349;-75
2021/06/19 06:07:55;;;;;;;11.75;7.85;;;21.80;75.80;;;;;;5114409;28;20160;-76
2021/06/19 06:10:21;;;;;;;13.77;10.07;;;21.70;75.00;;;;;;5115382;28;20076;-76
2021/06/19 06:12:47;;;;;;;12.00;8.25;;;21.70;76.60;;;;;;5114382;28;20463;-74
2021/06/19 06:15:13;;;;;;;15.95;10.07;;;21.60;74.60;;;;;;5113978;28;20031;-76
2021/06/19 06:17:39;;;;;;;13.07;10.63;;;21.60;75.10;;;;;;5114392;28;20047;-76
2021/06/19 06:20:06;;;;;;;13.45;10.52;;;21.60;76.40;;;;;;5114316;28;20027;-76
2021/06/19 06:22:31;;;;;;;11.32;9.07;;;21.60;75.60;;;;;;5113583;28;20487;-76
2021/06/19 06:24:57;;;;;;;14.50;10.02;;;21.60;76.10;;;;;;5113419;28;20107;-76
2021/06/19 06:27:22;;;;;;;16.15;13.60;;;21.70;77.10;;;;;;5114284;28;20023;-75
2021/06/19 06:29:48;;;;;;;18.02;14.63;;;21.60;77.20;;;;;;5115268;28;20348;-76
2021/06/19 06:32:14;;;;;;;17.83;13.55;;;21.60;75.40;;;;;;5113372;28;20035;-76
2021/06/19 06:34:39;;;;;;;21.42;16.88;;;21.50;74.30;;;;;;5114257;28;20076;-75
2021/06/19 06:37:07;;;;;;;22.05;16.17;;;21.50;73.60;;;;;;5114111;28;20028;-76
2021/06/19 06:39:32;;;;;;;18.20;13.88;;;21.50;74.60;;;;;;5112569;28;20035;-76
2021/06/19 06:42:00;;;;;;;20.80;14.85;;;21.50;72.70;;;;;;5115467;28;20024;-77
2021/06/19 06:44:25;;;;;;;21.63;15.80;;;21.60;72.10;;;;;;5113557;28;20057;-76
2021/06/19 06:46:51;;;;;;;20.13;13.90;;;21.70;71.80;;;;;;5112483;28;20096;-76
2021/06/19 06:49:17;;;;;;;18.02;14.75;;;21.90;71.10;;;;;;5114259;28;20027;-76
2021/06/19 06:51:43;;;;;;;22.90;15.35;;;21.90;71.70;;;;;;5113920;28;20027;-75
2021/06/19 06:54:08;;;;;;;20.02;15.30;;;21.90;72.00;;;;;;5114382;28;20024;-76
2021/06/19 06:56:34;;;;;;;16.52;13.60;;;21.90;72.70;;;;;;5112963;28;20024;-75
2021/06/19 06:59:00;;;;;;;17.27;13.63;;;22.10;70.70;;;;;;5113321;28;20451;-77
2021/06/19 07:01:26;;;;;;;22.77;16.80;;;22.30;69.90;;;;;;5113164;28;20030;-74
2021/06/19 07:03:55;;;;;;;16.70;11.77;;;22.40;71.20;;;;;;5113270;28;20022;-76
2021/06/19 07:06:22;;;;;;;16.27;11.27;;;22.40;70.10;;;;;;5112589;28;20363;-76
2021/06/19 07:08:47;;;;;;;14.20;10.63;;;22.40;69.50;;;;;;5114218;28;20046;-76
2021/06/19 07:11:13;;;;;;;15.43;10.80;;;22.40;68.80;;;;;;5112580;28;20023;-75
2021/06/19 07:13:38;;;;;;;12.68;8.73;;;22.40;68.70;;;;;;5112847;28;20058;-75
2021/06/19 07:16:04;;;;;;;14.07;9.05;;;22.50;68.10;;;;;;5117341;28;20042;-76
2021/06/19 07:18:30;;;;;;;13.63;8.98;;;22.50;68.60;;;;;;5116900;28;20028;-76
2021/06/19 07:20:56;;;;;;;15.63;10.20;;;22.60;69.20;;;;;;5114771;28;20471;-77
2021/06/19 07:23:23;;;;;;;14.88;10.10;;;22.60;69.90;;;;;;5115999;28;20419;-77
2021/06/19 07:25:48;;;;;;;14.30;10.25;;;22.60;70.40;;;;;;5114497;28;20028;-76
2021/06/19 07:28:14;;;;;;;14.10;10.90;;;22.70;69.30;;;;;;5114922;28;20021;-76
2021/06/19 07:30:40;;;;;;;10.18;7.22;;;22.80;68.30;;;;;;5114157;28;20028;-76
2021/06/19 07:33:05;;;;;;;13.07;9.20;;;22.90;66.90;;;;;;5112390;28;20064;-76
2021/06/19 07:35:31;;;;;;;10.35;8.05;;;23.10;67.00;;;;;;5112985;28;20367;-74
2021/06/19 07:37:57;;;;;;;9.10;6.15;;;23.10;66.80;;;;;;5112169;28;20024;-76
2021/06/19 07:40:23;;;;;;;9.02;6.47;;;23.10;66.70;;;;;;5111084;28;20110;-76
2021/06/19 07:42:49;;;;;;;16.60;11.40;;;23.20;66.80;;;;;;5111570;28;20034;-76
2021/06/19 07:45:15;;;;;;;16.67;11.65;;;23.30;66.90;;;;;;5111008;28;20087;-75
2021/06/19 07:47:40;;;;;;;13.00;8.75;;;23.10;66.90;;;;;;5110823;28;20070;-75
2021/06/19 07:50:07;;;;;;;12.50;9.38;;;23.10;67.40;;;;;;5110640;28;20452;-76
2021/06/19 07:52:35;;;;;;;20.02;14.20;;;23.10;67.30;;;;;;5109499;28;20031;-75
2021/06/19 07:55:01;;;;;;;17.05;12.98;;;23.20;67.10;;;;;;5110841;28;20368;-76
2021/06/19 07:57:27;;;;;;;15.02;9.40;;;23.30;67.40;;;;;;5112047;28;20035;-76
2021/06/19 07:59:52;;;;;;;16.02;10.63;;;23.30;66.40;;;;;;5110671;28;20032;-76
2021/06/19 08:02:18;;;;;;;16.15;11.45;;;23.30;66.70;;;;;;5110910;28;20463;-77
2021/06/19 08:04:44;;;;;;;21.30;14.07;;;23.50;67.20;;;;;;5111064;28;20053;-76
2021/06/19 08:07:10;;;;;;;22.80;16.65;;;23.80;66.20;;;;;;5112595;28;20485;-76
2021/06/19 08:09:36;;;;;;;21.77;15.63;;;23.80;65.90;;;;;;5111487;28;20042;-76
2021/06/19 08:12:02;;;;;;;21.35;16.23;;;23.80;66.30;;;;;;5112702;28;20020;-77
2021/06/19 08:14:28;;;;;;;18.63;13.57;;;23.90;65.90;;;;;;5111066;28;20354;-76
2021/06/19 08:16:56;;;;;;;17.33;11.25;;;24.00;64.40;;;;;;5114873;28;20100;-77
2021/06/19 08:19:23;;;;;;;23.67;17.45;;;23.90;64.70;;;;;;5113699;28;20073;-77
2021/06/19 08:21:49;;;;;;;25.45;18.23;;;23.90;64.70;;;;;;5112926;28;20024;-76
2021/06/19 08:24:15;;;;;;;21.00;17.48;;;23.90;65.20;;;;;;5115872;28;20042;-76
2021/06/19 08:26:41;;;;;;;24.25;18.95;;;23.80;65.10;;;;;;5114055;28;20444;-77
2021/06/19 08:29:07;;;;;;;24.88;18.70;;;23.90;65.20;;;;;;5112295;28;20450;-76
2021/06/19 08:31:38;;;;;;;23.88;17.42;;;23.90;65.10;;;;;;5113694;28;20055;-75
2021/06/19 08:34:05;;;;;;;26.40;20.10;;;23.70;65.40;;;;;;5114528;28;20054;-75
2021/06/19 08:36:31;;;;;;;25.90;18.30;;;23.60;65.80;;;;;;5116387;28;20052;-76
2021/06/19 08:38:57;;;;;;;29.17;20.77;;;23.50;66.50;;;;;;5115528;28;20024;-75
2021/06/19 08:41:22;;;;;;;29.55;20.25;;;23.50;66.60;;;;;;5116024;28;20020;-76
2021/06/19 08:43:48;;;;;;;29.98;21.50;;;23.60;67.20;;;;;;5122587;28;20765;-76
2021/06/19 08:46:17;;;;;;;22.67;16.92;;;23.70;66.40;;;;;;5119507;28;20530;-76
2021/06/19 08:48:47;;;;;;;21.05;18.33;;;23.60;66.40;;;;;;5114847;28;20459;-75
2021/06/19 08:51:13;;;;;;;20.00;17.60;;;23.60;66.10;;;;;;5114057;28;20078;-76
2021/06/19 08:53:39;;;;;;;15.43;11.60;;;23.60;65.80;;;;;;5114330;28;20383;-76
2021/06/19 08:56:04;;;;;;;22.60;17.63;;;23.60;66.70;;;;;;5114398;28;20016;-76
2021/06/19 08:58:30;;;;;;;15.73;10.65;;;23.70;66.10;;;;;;5115532;28;20103;-76
2021/06/19 09:00:56;;;;;;;20.85;13.70;;;23.80;66.60;;;;;;5117133;28;20028;-77
2021/06/19 09:03:24;;;;;;;14.95;11.10;;;24.00;65.80;;;;;;5117919;28;20027;-76
2021/06/19 09:05:52;;;;;;;17.17;13.80;;;24.10;65.70;;;;;;5114168;28;20023;-76
2021/06/19 09:08:19;;;;;;;16.92;14.73;;;24.10;64.40;;;;;;5114614;28;20034;-76
2021/06/19 09:10:45;;;;;;;17.85;15.70;;;24.00;64.10;;;;;;5114166;28;20031;-76
2021/06/19 09:13:12;;;;;;;11.93;10.05;;;23.90;64.10;;;;;;5114581;28;20020;-76
2021/06/19 09:15:49;;;;;;;15.07;12.38;;;23.80;66.10;;;;;;5113909;28;20073;-75
2021/06/19 09:18:29;;;;;;;14.60;13.05;;;23.70;66.20;;;;;;5115452;28;20057;-76
2021/06/19 09:21:03;;;;;;;14.02;11.93;;;23.70;66.80;;;;;;5124174;28;20019;-75
2021/06/19 09:23:30;;;;;;;15.85;13.80;;;23.70;66.30;;;;;;5118470;28;20077;-76
2021/06/19 09:26:13;;;;;;;11.27;8.73;;;23.80;66.50;;;;;;5127472;28;20030;-75
2021/06/19 09:29:04;;;;;;;17.13;12.70;;;23.90;67.10;;;;;;5116199;28;20064;-75
2021/06/19 09:31:52;;;;;;;16.45;13.20;;;24.00;65.20;;;;;;5116304;28;20024;-76
2021/06/19 09:34:19;;;;;;;10.25;8.10;;;24.00;65.20;;;;;;5113647;28;20064;-76
2021/06/19 09:36:51;;;;;;;17.38;13.15;;;24.20;66.00;;;;;;5113623;28;20024;-77
2021/06/19 09:39:29;;;;;;;15.07;12.93;;;24.40;64.70;;;;;;5114630;28;20041;-76
2021/06/19 09:41:57;;;;;;;17.15;12.82;;;24.60;64.10;;;;;;5115915;28;20143;-76
2021/06/19 09:44:42;;;;;;;14.13;10.60;;;24.70;63.70;;;;;;5115577;28;20028;-76
2021/06/19 09:47:11;;;;;;;15.95;12.18;;;24.70;64.30;;;;;;5115788;28;20046;-76
2021/06/19 09:49:40;;;;;;;20.15;16.42;;;24.50;63.80;;;;;;5115303;28;20480;-76
2021/06/19 09:52:06;;;;;;;15.77;12.47;;;24.40;63.50;;;;;;5112617;28;20044;-76
2021/06/19 09:54:40;;;;;;;11.52;7.07;;;24.20;64.70;;;;;;5115201;28;20383;-75
2021/06/19 09:57:12;;;;;;;16.30;12.02;;;24.10;66.00;;;;;;5115581;28;20012;-76
2021/06/19 09:59:39;;;;;;;23.20;18.30;;;24.10;65.70;;;;;;5114659;28;20042;-76
2021/06/19 10:02:23;;;;;;;22.83;16.35;;;24.00;64.50;;;;;;5115347;28;20020;-76
2021/06/19 10:04:51;;;;;;;24.95;20.17;;;23.90;65.20;;;;;;5114859;28;20080;-76
2021/06/19 10:07:19;;;;;;;24.45;19.33;;;23.80;65.20;;;;;;5113929;28;20015;-77
2021/06/19 10:09:48;;;;;;;18.65;16.55;;;23.90;65.30;;;;;;5116111;28;20032;-76
2021/06/19 10:12:17;;;;;;;16.10;13.45;;;24.30;65.60;;;;;;5115666;28;20023;-77
2021/06/19 10:14:44;;;;;;;17.60;13.90;;;24.70;64.80;;;;;;5115415;28;20028;-75
2021/06/19 10:17:10;;;;;;;15.23;12.48;;;25.00;62.90;;;;;;5113394;28;20051;-77
2021/06/19 10:19:36;;;;;;;16.98;13.68;;;25.30;62.80;;;;;;5115380;28;20130;-77
2021/06/19 10:22:02;;;;;;;17.63;15.32;;;25.60;61.80;;;;;;5114881;28;20023;-75
2021/06/19 10:24:27;;;;;;;17.23;14.40;;;25.90;61.30;;;;;;5113011;28;20031;-76
2021/06/19 10:26:54;;;;;;;17.77;15.88;;;26.10;58.90;;;;;;5113792;28;20027;-78
2021/06/19 10:29:26;;;;;;;19.25;15.95;;;26.20;58.30;;;;;;5112708;28;20028;-76
2021/06/19 10:31:53;;;;;;;18.35;16.42;;;26.30;57.60;;;;;;5112796;28;20035;-76
2021/06/19 10:34:23;;;;;;;14.82;11.82;;;26.40;56.90;;;;;;5115731;28;20019;-76
2021/06/19 10:36:51;;;;;;;11.88;9.95;;;26.60;56.50;;;;;;5113425;28;20046;-77
2021/06/19 10:39:42;;;;;;;13.98;12.50;;;26.80;57.00;;;;;;5112444;28;20063;-77
2021/06/19 10:42:16;;;;;;;14.88;12.52;;;26.90;54.30;;;;;;5112921;28;20023;-75
2021/06/19 10:44:51;;;;;;;11.50;9.68;;;26.80;55.40;;;;;;5114398;28;20034;-76
2021/06/19 10:47:18;;;;;;;12.80;11.45;;;27.00;56.40;;;;;;5118605;28;20057;-76
2021/06/19 10:49:45;;;;;;;11.38;8.52;;;27.10;55.50;;;;;;5116534;28;20027;-76
2021/06/19 10:52:39;;;;;;;17.38;15.57;;;27.30;55.60;;;;;;5115184;28;20103;-75
2021/06/19 10:55:08;;;;;;;16.25;14.55;;;27.30;54.20;;;;;;5114030;28;20024;-75
2021/06/19 10:57:54;;;;;;;13.02;11.65;;;27.20;55.00;;;;;;5112000;28;20027;-75
2021/06/19 11:00:24;;;;;;;17.92;16.02;;;27.00;57.00;;;;;;5112124;28;20035;-76
2021/06/19 11:02:50;;;;;;;;;;;26.80;54.70;;;;;;5114143;28;20026;-77
2021/06/19 11:05:52;;;;;;;18.90;16.88;;;26.80;55.80;;;;;;5112306;28;20268;-75
2021/06/19 11:08:18;;;;;;;18.92;16.67;;;26.80;55.30;;;;;;5094103;28;20410;-76
2021/06/19 11:10:47;;;;;;;17.33;15.52;;;26.60;56.30;;;;;;5113008;28;20038;-75
2021/06/19 11:13:31;;;;;;;19.55;17.45;;;26.50;56.20;;;;;;5112878;28;20022;-76
2021/06/19 11:16:05;;;;;;;21.20;17.60;;;26.40;56.70;;;;;;5111681;28;20116;-76
2021/06/19 11:18:51;;;;;;;21.00;18.73;;;26.20;56.60;;;;;;5113663;28;20050;-77
2021/06/19 11:21:28;;;;;;;15.00;13.23;;;26.00;57.10;;;;;;5118574;28;20071;-76
2021/06/19 11:24:00;;;;;;;22.38;20.05;;;26.00;59.60;;;;;;5116408;28;20020;-75
2021/06/19 11:27:01;;;;;;;18.77;16.77;;;26.10;57.50;;;;;;5114347;28;20062;-77
2021/06/19 11:29:44;;;;;;;21.48;19.27;;;26.30;58.00;;;;;;5125674;28;20061;-76
2021/06/19 11:32:28;;;;;;;23.88;19.35;;;26.30;58.30;;;;;;5113196;28;20032;-76
2021/06/19 11:34:58;;;;;;;23.42;20.30;;;26.10;57.70;;;;;;5113073;28;20062;-76
2021/06/19 11:37:24;;;;;;;18.77;16.30;;;26.00;57.60;;;;;;5114377;28;20111;-76
2021/06/19 11:39:49;;;;;;;14.18;12.60;;;25.80;59.70;;;;;;5112421;28;20067;-76
2021/06/19 11:42:15;;;;;;;25.77;23.15;;;25.70;61.40;;;;;;5114210;28;20403;-76
2021/06/19 11:44:43;;;;;;;23.05;20.20;;;25.70;58.40;;;;;;5114244;28;20058;-77
2021/06/19 11:47:10;;;;;;;21.60;19.02;;;25.60;58.90;;;;;;5114624;28;20027;-76
2021/06/19 11:49:39;;;;;;;27.60;23.23;;;25.70;59.00;;;;;;5111727;28;20110;-76
2021/06/19 11:52:06;;;;;;;27.55;24.20;;;25.60;58.60;;;;;;5112435;28;20023;-75
2021/06/19 11:54:40;;;;;;;25.65;22.95;;;25.50;58.70;;;;;;5112879;28;20039;-76
2021/06/19 11:57:06;;;;;;;24.05;21.63;;;25.30;59.00;;;;;;5113067;28;20020;-77
2021/06/19 11:59:32;;;;;;;24.90;22.20;;;25.20;60.40;;;;;;5114874;28;20036;-75
2021/06/19 12:01:58;;;;;;;24.85;22.25;;;25.20;59.80;;;;;;5114268;28;20047;-76
2021/06/19 12:04:29;;;;;;;25.10;22.48;;;25.20;59.40;;;;;;5114402;28;20028;-76
2021/06/19 12:06:57;;;;;;;21.58;18.77;;;25.30;60.10;;;;;;5111783;28;20461;-75
2021/06/19 12:09:25;;;;;;;25.58;22.98;;;25.30;61.90;;;;;;5111728;28;20023;-76
2021/06/19 12:12:00;;;;;;;27.20;24.42;;;25.40;59.90;;;;;;5112418;28;20397;-76
2021/06/19 12:14:27;;;;;;;26.27;23.77;;;25.30;59.30;;;;;;5112609;28;20137;-75
2021/06/19 12:16:55;;;;;;;28.15;24.90;;;25.30;59.00;;;;;;5111996;28;20047;-77
2021/06/19 12:19:23;;;;;;;24.17;21.65;;;25.50;60.30;;;;;;5112538;28;20024;-76
2021/06/19 12:21:50;;;;;;;26.30;23.52;;;25.60;59.60;;;;;;5111279;28;20030;-76
2021/06/19 12:24:26;;;;;;;27.70;24.92;;;25.80;59.70;;;;;;5110907;28;20024;-76
2021/06/19 12:27:14;;;;;;;22.23;19.92;;;26.00;58.20;;;;;;5110973;28;20536;-76
2021/06/19 12:29:53;;;;;;;24.25;21.85;;;26.00;57.60;;;;;;5111596;28;20204;-76
2021/06/19 12:32:28;;;;;;;23.42;21.10;;;25.70;57.50;;;;;;5111323;28;20189;-75
2021/06/19 12:35:06;;;;;;;23.80;21.05;;;25.50;59.40;;;;;;5110649;28;20015;-77
2021/06/19 12:37:39;;;;;;;17.27;15.40;;;25.40;60.00;;;;;;5112416;28;20035;-77
2021/06/19 12:40:09;;;;;;;23.65;21.38;;;25.30;60.00;;;;;;5111526;28;20038;-75
2021/06/19 12:42:46;;;;;;;28.63;25.60;;;25.20;59.90;;;;;;5112991;28;20020;-76